Aérodrome :
LOGIN :

S'inscrire | Disclaimer

   EN    FR    IT 

 










Légende :    VFR   VFR Marginal   IFR   IFR Intensif   IFR Très Intensif
Visi : 
Plafond : 
>= 8 km
>= 3000ft
5 à 8 km
1000 à 3000 ft
1500m à 5 km
500 à 1000 ft
800 à 1500m
200 à 500 ft
< 800m
< 200 ft
Symboles :   Orages  Brouillard  Fortes neiges  Fortes précipitations  Vent > 20 kt
SIGMETs :   Divers  Orages  Givrage  Turbulence  Onde Orograph.  Cendres Volcan.







- Altitude de l'aérodrome : 79 ft
- Code IATA : SPU


LDSP - Split

DERNIER METAR :
  • 251230Z 22008KT 190V250 CAVOK 18/07 Q1012 NOSIG

METARs EXPIRÉS :
  • 251200Z VRB04KT CAVOK 18/07 Q1012 BECMG 23008KT
  • 251130Z 14004KT 080V250 CAVOK 18/07 Q1013 BECMG 23008KT
  • 251100Z 11005KT CAVOK 18/05 Q1013 BECMG 23008KT
  • 251030Z 10006KT CAVOK 17/05 Q1013 BECMG 23008KT
  • 251000Z 11005KT CAVOK 17/05 Q1014 BECMG 23008KT

TAF TAF LDSP
Valide du 25 à 12h jusqu'au 26 à 12h UTC


251125Z 2512/2612 15006KT CAVOK TX19/2512Z TN07/2606Z
TEMPO 2512/2515 23008KT
BECMG 2522/2600 05020G35KT
TEMPO 2605/2610 RA
Pas de NOTAMs connus pour ce terrain.



MET'MAP, la Météo Aéronautique d'un coup d'oeil ! - Copyright ORBIFLY Décembre 2007 - Disclaimer

ORBIFLY MET'MAP TEAM :

Programmation & Développement : Alexandra Zaïnal
Conception & Développement : Baudouin d'Aumeries
Co-Programmation & Développement : Marc-Olivier Méhu
Soutien technique & logistique : Manuel Goepfert

Contact : metmap@orbifly.com




SOURCES & CREDITS :

   NOAA